Flight Track Log - Related Links

Times and Time Zones

All times are in EDT time to prevent confusion due to time zone crossing. See the N7020Q flight status page for this flight to view local times or setup timezone preferences in your user account.

Time Position Orientation Groundspeed Altitude Reporting Facility
EDT Latitude Longitude Course Direction KTS MPH feet Rate Location/Type
Sat 01:36:54 PM 39.5086 -84.1386 126° Southeast 87 100 3,200  Level Indianapolis Center
Sat 01:37:12 PM 39.5031 -84.1314 135° Southeast 90 104 3,100  Descending Indianapolis Center
Sat 01:37:55 PM 39.4864 -84.1303 177° South 94 108 3,200 -290 Climbing Indianapolis Center
Sat 01:38:14 PM 39.4772 -84.1311 184° South 95 109 2,800 98 Descending Indianapolis Center
Sat 01:38:56 PM 39.4608 -84.1322 183° South 103 119 3,300 581 Climbing Indianapolis Center
Sat 01:39:16 PM 39.4517 -84.1333 185° South 96 110 3,400 590 Climbing Indianapolis Center
Sat 01:39:57 PM 39.4356 -84.1344 183° South 83 96 3,900 484 Climbing Indianapolis Center
Sat 01:40:18 PM 39.4297 -84.1286 142° Southeast 87 100 3,900 393 Level Indianapolis Center
Sat 01:40:58 PM 39.4164 -84.1131 138° Southeast 89 102 4,300 393 Climbing Indianapolis Center
Sat 01:41:19 PM 39.4128 -84.1061 124° Southeast 85 98 4,300 393 Level Indianapolis Center
Sat 01:41:59 PM 39.4011 -84.0919 137° Southeast 83 96 4,700 484 Climbing Indianapolis Center
Sat 01:42:21 PM 39.3953 -84.0864 144° Southeast 84 97 4,800 393 Climbing Indianapolis Center
Sat 01:43:00 PM 39.3839 -84.0736 139° Southeast 80 92 5,100 290 Climbing Indianapolis Center
Sat 01:43:23 PM 39.3786 -84.0672 137° Southeast 82 94 5,100 492 Level Indianapolis Center
Sat 01:44:01 PM 39.3644 -84.0550 146° Southeast 82 94 5,600 387 Climbing Indianapolis Center
Sat 01:44:25 PM 39.3603 -84.0492 133° Southeast 81 93 5,500 349 Descending Indianapolis Center
Sat 01:45:27 PM 39.3403 -84.0286 142° Southeast 80 92 6,100 488 Climbing Indianapolis Center
Sat 01:46:28 PM 39.3244 -84.0086 136° Southeast 79 91 6,500 390 Climbing Indianapolis Center
Sat 01:47:30 PM 39.3078 -83.9856 133° Southeast 82 94 6,900 242 Climbing Indianapolis Center
Sat 01:48:32 PM 39.2881 -83.9614 137° Southeast 88 101 7,000 49 Climbing Indianapolis Center
Sat 01:49:33 PM 39.2644 -83.9350 139° Southeast 100 115 7,000 -49 Level Indianapolis Center
Sat 01:50:35 PM 39.2408 -83.9086 139° Southeast 106 122 6,900  Descending Indianapolis Center
Sat 01:51:37 PM 39.2183 -83.8819 137° Southeast 109 125 7,000  Climbing Indianapolis Center
Sat 01:52:38 PM 39.1967 -83.8564 138° Southeast 107 123 6,900  Descending Indianapolis Center
Sat 01:53:40 PM 39.1750 -83.8294 136° Southeast 108 124 7,000 48 Climbing Indianapolis Center
Sat 01:54:42 PM 39.1497 -83.7975 136° Southeast 107 123 7,000  Level Indianapolis Center
Sat 01:55:43 PM 39.1292 -83.7719 136° Southeast 105 121 7,000 -49 Level Indianapolis Center
Sat 01:56:45 PM 39.1067 -83.7453 137° Southeast 107 123 6,900 -49 Descending Indianapolis Center
Sat 01:57:46 PM 39.0850 -83.7194 137° Southeast 106 122 6,900  Level Indianapolis Center
Sat 01:58:48 PM 39.0633 -83.6942 138° Southeast 105 121 6,900  Level Indianapolis Center
Sat 01:59:50 PM 39.0414 -83.6675 137° Southeast 106 122 6,900 49 Level Indianapolis Center
Sat 02:00:51 PM 39.0211 -83.6419 136° Southeast 104 120 7,000 49 Climbing Indianapolis Center
Sat 02:01:53 PM 39.0003 -83.6150 135° Southeast 104 120 7,000  Level Indianapolis Center
Sat 02:02:54 PM 38.9789 -83.5867 134° Southeast 108 124 7,000  Level Indianapolis Center
Sat 02:03:56 PM 38.9564 -83.5603 138° Southeast 109 125 7,000  Level Indianapolis Center
Sat 02:04:58 PM 38.9319 -83.5261 133° Southeast 109 125 7,000 49 Level Indianapolis Center
Sat 02:05:59 PM 38.9097 -83.4986 136° Southeast 111 128 7,100 49 Climbing Indianapolis Center
Sat 02:07:01 PM 38.8869 -83.4725 138° Southeast 109 125 7,100  Level Indianapolis Center
Sat 02:08:02 PM 38.8650 -83.4458 137° Southeast 108 124 7,100  Level Indianapolis Center
Sat 02:09:04 PM 38.8439 -83.4186 135° Southeast 108 124 7,100  Level Indianapolis Center
Sat 02:10:06 PM 38.8211 -83.3914 137° Southeast 110 127 7,100 -49 Level Indianapolis Center
Sat 02:11:07 PM 38.7997 -83.3650 136° Southeast 107 123 7,000 -49 Descending Indianapolis Center
Sat 02:12:09 PM 38.7761 -83.3392 140° Southeast 109 125 7,000 49 Level Indianapolis Center
Sat 02:13:10 PM 38.7539 -83.3133 138° Southeast 107 123 7,100  Climbing Indianapolis Center
Sat 02:14:12 PM 38.7328 -83.2864 135° Southeast 105 121 7,000 -48 Descending Indianapolis Center
Sat 02:15:14 PM 38.7069 -83.2553 137° Southeast 108 124 7,000 49 Level Indianapolis Center
Sat 02:16:15 PM 38.6850 -83.2283 136° Southeast 109 125 7,100 49 Climbing Indianapolis Center
Sat 02:17:17 PM 38.6619 -83.2008 137° Southeast 112 129 7,100  Level Indianapolis Center
Sat 02:18:19 PM 38.6417 -83.1744 135° Southeast 111 128 7,100  Level Indianapolis Center
Sat 02:19:20 PM 38.6150 -83.1436 138° Southeast 111 128 7,100 -49 Level Indianapolis Center
Sat 02:20:22 PM 38.5925 -83.1153 135° Southeast 111 128 7,000 -49 Descending Indianapolis Center
Sat 02:21:23 PM 38.5703 -83.0889 137° Southeast 110 127 7,000 49 Level Indianapolis Center
Sat 02:22:25 PM 38.5483 -83.0636 138° Southeast 106 122 7,100  Climbing Indianapolis Center
Sat 02:23:26 PM 38.5267 -83.0344 134° Southeast 112 129 7,000 -49 Descending Indianapolis Center
Sat 02:24:28 PM 38.5053 -83.0064 134° Southeast 110 127 7,000  Level Indianapolis Center
Sat 02:25:29 PM 38.4817 -82.9808 140° Southeast 111 128 7,000  Level Indianapolis Center
Sat 02:26:31 PM 38.4600 -82.9528 135° Southeast 110 127 7,000  Level Indianapolis Center
Sat 02:27:33 PM 38.4311 -82.9203 139° Southeast 116 133 7,000  Level Indianapolis Center
Sat 02:28:34 PM 38.4086 -82.8928 136° Southeast 113 130 7,000  Level Indianapolis Center
Sat 02:29:36 PM 38.3847 -82.8653 138° Southeast 114 131 7,000 49 Level Indianapolis Center
Sat 02:30:37 PM 38.3600 -82.8381 139° Southeast 117 135 7,100 49 Climbing Indianapolis Center
Sat 02:31:39 PM 38.3364 -82.8139 141° Southeast 111 128 7,100  Level Indianapolis Center
Sat 02:32:41 PM 38.3117 -82.7844 137° Southeast 118 136 7,100 -49 Level Indianapolis Center
Sat 02:33:42 PM 38.2875 -82.7578 139° Southeast 116 133 7,000 -49 Descending Indianapolis Center
Sat 02:34:44 PM 38.2581 -82.7272 141° Southeast 116 133 7,000  Level Indianapolis Center
Sat 02:35:46 PM 38.2339 -82.6975 136° Southeast 118 136 7,000  Level Indianapolis Center
Sat 02:36:47 PM 38.2106 -82.6733 141° Southeast 110 127 7,000  Level Indianapolis Center
Sat 02:37:49 PM 38.1875 -82.6458 137° Southeast 113 130 7,000 48 Level Indianapolis Center
Sat 02:38:51 PM 38.1647 -82.6192 137° Southeast 111 128 7,100  Climbing Indianapolis Center
Sat 02:39:52 PM 38.1431 -82.5903 134° Southeast 113 130 7,000 -49 Descending Indianapolis Center
Sat 02:40:54 PM 38.1200 -82.5622 136° Southeast 113 130 7,000  Level Indianapolis Center
Sat 02:41:56 PM 38.0939 -82.5308 137° Southeast 111 128 7,000 49 Level Indianapolis Center
Sat 02:42:57 PM 38.0706 -82.5050 139° Southeast 110 127 7,100  Climbing Indianapolis Center
Sat 02:43:59 PM 38.0483 -82.4772 135° Southeast 111 128 7,000 -48 Descending Indianapolis Center
Sat 02:45:01 PM 38.0247 -82.4517 140° Southeast 111 128 7,000  Level Indianapolis Center
Sat 02:46:03 PM 38.0017 -82.4264 139° Southeast 110 127 7,000  Level Indianapolis Center
Sat 02:47:04 PM 37.9778 -82.4006 140° Southeast 110 127 7,000 49 Level Indianapolis Center
Sat 02:48:06 PM 37.9542 -82.3742 139° Southeast 112 129 7,100  Climbing Indianapolis Center
Sat 02:49:08 PM 37.9278 -82.3444 138° Southeast 110 127 7,000 -48 Descending Indianapolis Center
Sat 02:50:10 PM 37.9039 -82.3200 141° Southeast 109 125 7,000  Level Indianapolis Center
Sat 02:51:12 PM 37.8803 -82.2936 139° Southeast 111 128 7,000  Level Indianapolis Center
Sat 02:52:13 PM 37.8564 -82.2694 141° Southeast 111 128 7,000  Level Indianapolis Center
Sat 02:53:15 PM 37.8303 -82.2431 141° Southeast 115 132 7,000  Level Indianapolis Center
Sat 02:54:17 PM 37.8069 -82.2175 139° Southeast 114 131 7,000  Level Indianapolis Center
Sat 02:55:19 PM 37.7789 -82.1889 141° Southeast 112 129 7,000  Level Indianapolis Center
Sat 02:56:21 PM 37.7539 -82.1625 140° Southeast 114 131 7,000  Level Indianapolis Center
Sat 02:57:23 PM 37.7306 -82.1367 139° Southeast 113 130 7,000 -49 Level Indianapolis Center
Sat 02:58:24 PM 37.7069 -82.1119 140° Southeast 111 128 6,900  Descending Indianapolis Center
Sat 02:59:26 PM 37.6814 -82.0894 145° Southeast 112 129 7,000 48 Climbing Indianapolis Center
Sat 03:00:28 PM 37.6569 -82.0633 140° Southeast 113 130 7,000  Level Indianapolis Center
Sat 03:01:30 PM 37.6342 -82.0381 139° Southeast 112 129 7,000  Level Indianapolis Center
Sat 03:02:32 PM 37.6056 -82.0083 141° Southeast 113 130 7,000  Level Indianapolis Center
Sat 03:03:34 PM 37.5825 -81.9856 142° Southeast 109 125 7,000  Level Indianapolis Center
Sat 03:04:36 PM 37.5592 -81.9600 139° Southeast 109 125 7,000  Level Indianapolis Center
Sat 03:05:37 PM 37.5361 -81.9358 140° Southeast 109 125 7,000  Level Indianapolis Center
Sat 03:06:39 PM 37.5125 -81.9097 139° Southeast 111 128 7,000  Level Indianapolis Center
Sat 03:07:41 PM 37.4883 -81.8850 141° Southeast 111 128 7,000  Level Indianapolis Center
Sat 03:08:43 PM 37.4622 -81.8556 138° Southeast 110 127 7,000  Level Indianapolis Center
Sat 03:09:45 PM 37.4381 -81.8303 140° Southeast 112 129 7,000  Level Indianapolis Center
Sat 03:10:47 PM 37.4144 -81.8047 139° Southeast 111 128 7,000  Level Indianapolis Center
Sat 03:11:49 PM 37.3919 -81.7803 139° Southeast 108 124 7,000 -48 Level Indianapolis Center
Sat 03:12:51 PM 37.3683 -81.7539 138° Southeast 111 128 6,900  Descending Indianapolis Center
Sat 03:14:32 PM 37.3269 -81.7136 142° Southeast 109 125 7,000 97 Climbing Atlanta Center
Sat 03:14:55 PM 37.3158 -81.7006 137° Southeast 114 131 7,100  Climbing Indianapolis Center
Sat 03:15:57 PM 37.2928 -81.6758 140° Southeast 110 127 7,000 -48 Descending Indianapolis Center
Sat 03:16:59 PM 37.2703 -81.6514 139° Southeast 108 124 7,000 48 Level Indianapolis Center
Sat 03:18:01 PM 37.2458 -81.6244 139° Southeast 113 130 7,100  Climbing Indianapolis Center
Sat 03:19:03 PM 37.2225 -81.5992 139° Southeast 112 129 7,000 -48 Descending Indianapolis Center
Sat 03:20:05 PM 37.1989 -81.5733 139° Southeast 112 129 7,000  Level Indianapolis Center
Sat 03:21:06 PM 37.1717 -81.5450 140° Southeast 110 127 7,000 49 Level Indianapolis Center
Sat 03:22:08 PM 37.1489 -81.5200 139° Southeast 108 124 7,100  Climbing Indianapolis Center
Sat 03:23:10 PM 37.1267 -81.4961 139° Southeast 108 124 7,000 -97 Descending Indianapolis Center
Sat 03:24:12 PM 37.1017 -81.4736 144° Southeast 109 125 6,900  Descending Indianapolis Center
Sat 03:25:14 PM 37.0744 -81.4572 154° Southeast 109 125 7,000  Climbing Indianapolis Center
Sat 03:26:16 PM 37.0503 -81.4328 141° Southeast 110 127 6,900 -49 Descending Indianapolis Center
Sat 03:27:17 PM 37.0258 -81.4017 135° Southeast 109 125 6,900  Level Indianapolis Center
Sat 03:28:19 PM 37.0058 -81.3792 138° Southeast 109 125 6,900  Level Indianapolis Center
Sat 03:29:21 PM 36.9797 -81.3475 136° Southeast 111 128 6,900  Level Indianapolis Center
Sat 03:30:23 PM 36.9569 -81.3233 140° Southeast 111 128 6,900  Level Indianapolis Center
Sat 03:31:25 PM 36.9383 -81.2947 129° Southeast 111 128 6,900 47 Level Indianapolis Center
Sat 03:32:32 PM 36.9089 -81.2636 140° Southeast 114 131 7,000 94 Climbing Atlanta Center
Sat 03:33:32 PM 36.8897 -81.2383 133° Southeast 114 131 7,100  Climbing Atlanta Center
Sat 03:34:32 PM 36.8681 -81.2081 132° Southeast 114 131 7,000 -50 Descending Atlanta Center
Sat 03:35:32 PM 36.8486 -81.1803 131° Southeast 114 131 7,000 50 Level Atlanta Center
Sat 03:36:32 PM 36.8250 -81.1500 134° Southeast 114 131 7,100  Climbing Atlanta Center
Sat 03:37:32 PM 36.8036 -81.1222 134° Southeast 119 137 7,000  Descending Atlanta Center
Sat 03:38:32 PM 36.7819 -81.0919 132° Southeast 119 137 7,100 50 Climbing Atlanta Center
Sat 03:39:32 PM 36.7603 -81.0617 132° Southeast 114 131 7,100  Level Atlanta Center
Sat 03:40:32 PM 36.7389 -81.0339 134° Southeast 119 137 7,100 -50 Level Atlanta Center
Sat 03:41:32 PM 36.7175 -81.0064 134° Southeast 119 137 7,000 -50 Descending Atlanta Center
Sat 03:42:32 PM 36.6917 -80.9814 142° Southeast 119 137 7,000  Level Atlanta Center
Sat 03:43:32 PM 36.6703 -80.9564 137° Southeast 114 131 7,000  Level Atlanta Center
Sat 03:44:32 PM 36.6467 -80.9314 140° Southeast 114 131 7,000  Level Atlanta Center
Sat 03:45:32 PM 36.6272 -80.9036 131° Southeast 114 131 7,000 -50 Level Atlanta Center
Sat 03:46:32 PM 36.6058 -80.8786 137° Southeast 114 131 6,900  Descending Atlanta Center
Sat 03:47:32 PM 36.5842 -80.8511 134° Southeast 114 131 7,000 100 Climbing Atlanta Center
Sat 03:48:32 PM 36.5586 -80.8261 142° Southeast 119 137 7,100  Climbing Atlanta Center
Sat 03:49:32 PM 36.5308 -80.8014 144° Southeast 119 137 7,000 -50 Descending Atlanta Center
Sat 03:50:32 PM 36.5028 -80.7717 140° Southeast 124 143 7,000  Level Atlanta Center
Sat 03:51:32 PM 36.4792 -80.7467 140° Southeast 119 137 7,000 50 Level Atlanta Center
Sat 03:52:32 PM 36.4575 -80.7192 134° Southeast 114 131 7,100  Climbing Atlanta Center
Sat 03:53:32 PM 36.4319 -80.6919 139° Southeast 119 137 7,000 -50 Descending Atlanta Center
Sat 03:54:32 PM 36.4083 -80.6672 140° Southeast 119 137 7,000 50 Level Atlanta Center
Sat 03:55:32 PM 36.3844 -80.6372 135° Southeast 119 137 7,100 100 Climbing Atlanta Center
Sat 03:57:00 PM 36.3509 -80.5999 138° Southeast  Level FlightAware Approximate
Sat 04:04:00 PM 36.1909 -80.4223 138° Southeast  Level FlightAware Approximate
Sat 04:05:00 PM 36.1680 -80.3969 138° Southeast  Level FlightAware Approximate
Sat 04:06:00 PM 36.1452 -80.3716 138° Southeast  Level FlightAware Approximate
Sat 04:07:00 PM 36.1223 -80.3464 138° Southeast  Level FlightAware Approximate
Sat 04:08:00 PM 36.0994 -80.3211 138° Southeast  Level FlightAware Approximate
Sat 04:09:00 PM 36.0765 -80.2958 138° Southeast  Level FlightAware Approximate
Sat 04:10:00 PM 36.0536 -80.2706 138° Southeast  Level FlightAware Approximate
Sat 04:11:00 PM 36.0307 -80.2453 138° Southeast  Level FlightAware Approximate
Sat 04:12:00 PM 36.0077 -80.2201 138° Southeast  Level FlightAware Approximate
Sat 04:13:00 PM 35.9848 -80.1949 138° Southeast  Level FlightAware Approximate
Sat 04:14:00 PM 35.9619 -80.1697 138° Southeast  Level FlightAware Approximate
Sat 04:15:00 PM 35.9389 -80.1445 138° Southeast  Level FlightAware Approximate
Sat 04:16:00 PM 35.9160 -80.1194 138° Southeast  Level FlightAware Approximate
Sat 04:17:00 PM 35.8931 -80.0943 138° Southeast  Level FlightAware Approximate
Sat 04:18:00 PM 35.8701 -80.0691 138° Southeast  Level FlightAware Approximate
Sat 04:19:00 PM 35.8471 -80.0440 138° Southeast  Level FlightAware Approximate
Sat 04:20:00 PM 35.8242 -80.0189 138° Southeast  Level FlightAware Approximate
Sat 04:21:00 PM 35.8012 -79.9938 138° Southeast  Level FlightAware Approximate
Sat 04:22:00 PM 35.7783 -79.9688 138° Southeast  Level FlightAware Approximate
Sat 04:23:00 PM 35.7553 -79.9437 138° Southeast  Level FlightAware Approximate
Sat 04:24:00 PM 35.7323 -79.9187 139° Southeast  Level FlightAware Approximate
Sat 04:25:00 PM 35.7093 -79.8936 139° Southeast  Level FlightAware Approximate
Sat 04:26:00 PM 35.6863 -79.8686 139° Southeast  Level FlightAware Approximate
Sat 04:27:00 PM 35.6633 -79.8436 139° Southeast  Level FlightAware Approximate
Sat 04:28:00 PM 35.6403 -79.8186 139° Southeast  Level FlightAware Approximate
Sat 04:29:00 PM 35.6173 -79.7937 139° Southeast  Level FlightAware Approximate
Sat 04:30:00 PM 35.5943 -79.7687 139° Southeast  Level FlightAware Approximate
Sat 04:31:00 PM 35.5713 -79.7438 139° Southeast  Level FlightAware Approximate
Sat 04:32:00 PM 35.5482 -79.7188 139° Southeast  Level FlightAware Approximate
Sat 04:33:00 PM 35.5252 -79.6939 139° Southeast  Level FlightAware Approximate
Sat 04:34:00 PM 35.5022 -79.6690 139° Southeast  Level FlightAware Approximate
Sat 04:35:00 PM 35.4783 -79.6450 141° Southeast  Level FlightAware Approximate
Sat 04:36:00 PM 35.4545 -79.6212 141° Southeast  Level FlightAware Approximate
Sat 04:37:00 PM 35.4307 -79.5974 141° Southeast  Level FlightAware Approximate
Sat 04:38:00 PM 35.4070 -79.5736 141° Southeast  Level FlightAware Approximate
Sat 04:39:00 PM 35.3832 -79.5498 141° Southeast  Level FlightAware Approximate
Sat 04:40:00 PM 35.3600 -79.5253 136° Southeast  Level FlightAware Approximate
Sat 04:41:00 PM 35.3380 -79.4990 136° Southeast  Level FlightAware Approximate
Sat 04:42:00 PM 35.3161 -79.4726 136° Southeast  Level FlightAware Approximate
Sat 04:43:00 PM 35.2942 -79.4464 136° Southeast  Level FlightAware Approximate
Sat 04:44:00 PM 35.2713 -79.4213 141° Southeast  Level FlightAware Approximate

Login

Don't have an account? Register now (free) for customized features, flight alerts, and more!